Time;durP1;ratioP1;P1;durP2;ratioP2;P2;SDS_P1;SDS_P2;PMS_P1;PMS_P2;Temp;Humidity;BMP_temperature;BMP_pressure;BME280_temperature;BME280_humidity;BME280_pressure;Samples;Min_cycle;Max_cycle;Signal;HPM_P1;HPM_P2
2023/04/08 00:01:26;;;;;;;;;;;;;;;1.78;87.70;93463.50;5024201;28;19948;-38
2023/04/08 00:03:51;;;;;;;;;;;;;;;1.71;87.84;93464.00;5024596;28;19929;-38
2023/04/08 00:06:19;;;;;;;;;;;;;;;1.56;88.82;93468.91;5028093;28;20332;-38
2023/04/08 00:08:44;;;;;;;;;;;;;;;1.54;89.07;93470.13;5034835;28;19921;-38
2023/04/08 00:11:10;;;;;;;;;;;;;;;1.72;87.35;93471.69;5031517;28;19916;-38
2023/04/08 00:13:44;;;;;;;;;;;;;;;1.74;86.66;93473.91;5026973;28;20003;-38
2023/04/08 00:16:10;;;;;;;;;;;;;;;1.76;86.24;93468.69;5029032;28;19921;-38
2023/04/08 00:18:37;;;;;;;;;;;;;;;1.70;86.36;93481.56;5037314;28;19917;-38
2023/04/08 00:21:02;;;;;;;;;;;;;;;1.46;87.52;93479.25;5018851;28;20497;-38
2023/04/08 00:23:27;;;;;;;;;;;;;;;1.14;89.28;93467.75;5014235;28;20011;-38
2023/04/08 00:25:52;;;;;;;;;;;;;;;1.17;89.46;93469.50;5052047;28;19917;-38
2023/04/08 00:28:18;;;;;;;;;;;;;;;1.24;89.25;93473.72;5018645;28;19960;-38
2023/04/08 00:30:43;;;;;;;;;;;;;;;1.36;88.68;93480.72;5024485;28;19914;-38
2023/04/08 00:33:08;;;;;;;;;;;;;;;1.42;87.72;93474.06;5022335;28;19917;-38
2023/04/08 00:35:34;;;;;;;;;;;;;;;1.59;86.71;93471.38;5026976;28;19987;-38
2023/04/08 00:38:00;;;;;;;;;;;;;;;1.27;87.29;93470.03;5031264;28;19939;-38
2023/04/08 00:40:25;;;;;;;;;;;;;;;1.25;87.96;93475.97;5030789;28;19917;-38
2023/04/08 00:42:54;;;;;;;;;;;;;;;1.20;88.72;93484.84;5024468;28;19921;-38
2023/04/08 00:45:22;;;;;;;;;;;;;;;1.26;88.63;93473.97;5027910;28;19917;-38
2023/04/08 00:47:51;;;;;;;;;;;;;;;1.20;88.94;93478.66;5025888;28;19960;-37
2023/04/08 00:50:16;;;;;;;;;;;;;;;1.22;89.01;93470.75;5024480;28;19921;-38
2023/04/08 00:52:42;;;;;;;;;;;;;;;1.36;88.95;93483.44;5028694;28;20012;-38
2023/04/08 00:55:07;;;;;;;;;;;;;;;1.26;88.41;93477.44;5030465;28;20404;-37
2023/04/08 00:57:32;;;;;;;;;;;;;;;1.58;88.39;93474.59;5022756;28;19920;-38
2023/04/08 00:59:58;;;;;;;;;;;;;;;1.37;87.73;93463.91;5058854;28;20453;-38
2023/04/08 01:02:29;;;;;;;;;;;;;;;1.18;88.93;93479.16;5028949;28;19968;-37
2023/04/08 01:04:58;;;;;;;;;;;;;;;1.37;89.15;93476.75;5019899;28;19924;-37
2023/04/08 01:07:26;;;;;;;;;;;;;;;1.25;89.35;93475.97;5028602;28;19948;-37
2023/04/08 01:09:52;;;;;;;;;;;;;;;1.19;90.53;93477.91;5053905;28;20309;-37
2023/04/08 01:12:20;;;;;;;;;;;;;;;1.24;90.13;93474.47;5039136;28;19921;-37
2023/04/08 01:14:45;;;;;;;;;;;;;;;1.28;90.15;93474.97;5055764;28;19955;-38
2023/04/08 01:17:10;;;;;;;;;;;;;;;1.30;89.77;93475.22;5046463;28;20412;-37
2023/04/08 01:19:37;;;;;;;;;;;;;;;1.41;90.41;93475.28;5020058;28;19960;-37
2023/04/08 01:22:38;;;;;;;;;;;;;;;1.55;89.83;93473.59;5026475;28;19913;-37
2023/04/08 01:25:06;;;;;;;;;;;;;;;1.53;88.59;93482.25;5025809;28;19921;-38
2023/04/08 01:27:32;;;;;;;;;;;;;;;1.60;87.57;93480.31;5016091;28;19971;-38
2023/04/08 01:29:57;;;;;;;;;;;;;;;1.36;87.95;93478.00;5028301;28;19953;-38
2023/04/08 01:32:23;;;;;;;;;;;;;;;1.36;88.93;93480.72;5063765;28;20484;-37
2023/04/08 01:34:48;;;;;;;;;;;;;;;1.42;88.75;93492.34;5024567;28;19919;-38
2023/04/08 01:37:13;;;;;;;;;;;;;;;1.54;88.65;93494.63;5061550;28;19928;-38
2023/04/08 01:39:39;;;;;;;;;;;;;;;1.54;88.13;93491.91;5057503;28;19917;-38
2023/04/08 01:42:04;;;;;;;;;;;;;;;1.40;88.95;93494.81;5057035;28;20036;-38
2023/04/08 01:44:29;;;;;;;;;;;;;;;1.34;89.60;93494.78;5019882;28;19918;-38
2023/04/08 01:46:55;;;;;;;;;;;;;;;1.15;90.19;93493.72;5038434;28;20036;-38
2023/04/08 01:49:20;;;;;;;;;;;;;;;1.31;90.21;93492.31;5037543;28;19925;-38
2023/04/08 01:51:45;;;;;;;;;;;;;;;1.34;89.15;93494.06;5025180;28;19917;-38
2023/04/08 01:54:11;;;;;;;;;;;;;;;1.18;90.60;93492.00;5057480;28;19913;-38
2023/04/08 01:56:37;;;;;;;;;;;;;;;1.11;91.35;93493.19;5061013;28;20540;-38
2023/04/08 01:59:02;;;;;;;;;;;;;;;1.12;92.34;93497.41;5055054;28;19925;-37
2023/04/08 02:01:27;;;;;;;;;;;;;;;1.33;92.36;93498.75;5024821;28;19933;-37
2023/04/08 02:03:55;;;;;;;;;;;;;;;1.46;91.72;93498.31;5058905;28;19913;-38
2023/04/08 02:06:20;;;;;;;;;;;;;;;1.49;91.39;93510.94;5036396;28;20474;-38
2023/04/08 02:08:45;;;;;;;;;;;;;;;1.54;89.77;93513.66;5051226;28;19918;-37
2023/04/08 02:11:11;;;;;;;;;;;;;;;1.52;88.78;93507.97;5016988;28;19970;-37
2023/04/08 02:13:36;;;;;;;;;;;;;;;1.52;88.09;93509.94;5019068;28;20261;-38
2023/04/08 02:16:14;;;;;;;;;;;;;;;1.56;88.19;93509.72;5022266;28;20020;-38
2023/04/08 02:18:40;;;;;;;;;;;;;;;1.60;88.21;93513.69;5053773;28;19968;-38
2023/04/08 02:21:15;;;;;;;;;;;;;;;1.65;89.31;93515.69;5025608;28;20652;-38
2023/04/08 02:23:40;;;;;;;;;;;;;;;1.71;89.06;93521.88;5059144;28;20393;-38
2023/04/08 02:26:12;;;;;;;;;;;;;;;1.77;88.63;93524.63;5034984;28;19982;-38
2023/04/08 02:28:38;;;;;;;;;;;;;;;1.74;88.04;93528.31;5057264;28;19959;-38
2023/04/08 02:31:03;;;;;;;;;;;;;;;1.63;87.84;93514.69;5029386;28;19952;-38
2023/04/08 02:33:28;;;;;;;;;;;;;;;1.61;88.57;93528.03;5050858;28;19924;-38
2023/04/08 02:35:54;;;;;;;;;;;;;;;1.50;89.49;93524.03;5023196;28;20389;-38
2023/04/08 02:38:20;;;;;;;;;;;;;;;1.39;90.25;93521.28;5021696;28;19917;-38
2023/04/08 02:40:45;;;;;;;;;;;;;;;1.41;90.19;93520.78;5031775;28;20324;-38
2023/04/08 02:43:10;;;;;;;;;;;;;;;1.37;89.94;93523.72;5017305;28;19955;-38
2023/04/08 02:45:40;;;;;;;;;;;;;;;1.26;90.97;93514.78;5020583;28;20059;-38
2023/04/08 02:48:05;;;;;;;;;;;;;;;1.27;91.03;93513.56;5032064;28;19948;-38
2023/04/08 02:50:30;;;;;;;;;;;;;;;1.26;91.35;93520.97;5024080;28;20462;-38
2023/04/08 02:52:56;;;;;;;;;;;;;;;1.34;91.35;93521.97;5027254;28;19927;-38
2023/04/08 02:55:21;;;;;;;;;;;;;;;1.37;91.29;93518.28;5031792;28;19921;-38
2023/04/08 02:57:46;;;;;;;;;;;;;;;1.34;91.59;93516.53;5031776;28;19921;-38
2023/04/08 03:00:12;;;;;;;;;;;;;;;1.35;91.58;93518.03;5027094;28;20048;-38
2023/04/08 03:02:37;;;;;;;;;;;;;;;1.45;91.14;93519.31;5027618;28;20015;-38
2023/04/08 03:05:04;;;;;;;;;;;;;;;1.39;91.61;93513.09;5028417;28;19978;-38
2023/04/08 03:07:29;;;;;;;;;;;;;;;1.51;91.09;93517.38;5023598;28;19936;-38
2023/04/08 03:09:55;;;;;;;;;;;;;;;1.63;90.31;93522.84;5027078;28;19913;-38
2023/04/08 03:12:20;;;;;;;;;;;;;;;1.61;90.88;93514.44;5019627;28;20424;-38
2023/04/08 03:14:46;;;;;;;;;;;;;;;1.43;91.14;93521.78;5030892;28;20305;-38
2023/04/08 03:17:11;;;;;;;;;;;;;;;1.53;90.49;93514.16;5031482;28;19916;-38
2023/04/08 03:19:36;;;;;;;;;;;;;;;1.49;91.76;93516.38;5030654;28;20316;-38
2023/04/08 03:22:02;;;;;;;;;;;;;;;1.53;92.16;93520.34;5039741;28;19960;-38
2023/04/08 03:24:27;;;;;;;;;;;;;;;1.51;92.31;93516.63;5036233;28;20021;-38
2023/04/08 03:26:52;;;;;;;;;;;;;;;1.57;91.33;93516.63;5030303;28;19923;-38
2023/04/08 03:29:17;;;;;;;;;;;;;;;1.64;90.99;93521.63;5023923;28;19929;-38
2023/04/08 03:31:43;;;;;;;;;;;;;;;1.62;90.04;93513.97;5023268;28;20423;-38
2023/04/08 03:34:08;;;;;;;;;;;;;;;1.67;90.72;93521.38;5034623;28;19921;-38
2023/04/08 03:36:33;;;;;;;;;;;;;;;1.63;90.75;93514.69;5024405;28;20003;-38
2023/04/08 03:38:58;;;;;;;;;;;;;;;1.88;90.12;93525.44;5025847;28;19925;-38
2023/04/08 03:41:24;;;;;;;;;;;;;;;1.75;89.25;93521.66;5030136;28;20393;-38
2023/04/08 03:43:49;;;;;;;;;;;;;;;1.86;89.17;93518.97;5025544;28;19923;-38
2023/04/08 03:46:14;;;;;;;;;;;;;;;1.68;89.35;93512.00;5032100;28;19969;-38
2023/04/08 03:48:40;;;;;;;;;;;;;;;1.52;89.84;93518.09;5028402;28;19959;-38
2023/04/08 03:51:05;;;;;;;;;;;;;;;1.35;91.83;93515.31;5032107;28;20211;-38
2023/04/08 03:53:30;;;;;;;;;;;;;;;1.22;92.37;93515.00;5028797;28;19924;-38
2023/04/08 03:55:56;;;;;;;;;;;;;;;1.28;92.92;93521.22;5029329;28;20003;-38
2023/04/08 03:58:21;;;;;;;;;;;;;;;1.28;92.88;93523.94;5029852;28;19921;-38
2023/04/08 04:00:46;;;;;;;;;;;;;;;1.41;92.89;93516.09;5016841;28;19926;-38
2023/04/08 04:03:12;;;;;;;;;;;;;;;1.22;92.91;93525.88;5024481;28;20003;-38
2023/04/08 04:05:37;;;;;;;;;;;;;;;1.26;93.29;93520.97;5027616;28;20593;-38
2023/04/08 04:08:03;;;;;;;;;;;;;;;1.45;92.96;93524.75;5032124;28;19990;-38
2023/04/08 04:10:28;;;;;;;;;;;;;;;1.39;93.36;93517.81;5028601;28;19928;-38
2023/04/08 04:12:53;;;;;;;;;;;;;;;1.53;93.67;93523.06;5028785;28;19921;-38
2023/04/08 04:15:19;;;;;;;;;;;;;;;1.52;93.39;93526.28;5027767;28;20000;-38
2023/04/08 04:17:46;;;;;;;;;;;;;;;1.51;93.56;93522.81;5030687;28;19917;-38
2023/04/08 04:20:11;;;;;;;;;;;;;;;1.61;92.43;93528.03;5026076;28;19917;-38
2023/04/08 04:22:37;;;;;;;;;;;;;;;1.57;92.59;93522.84;5026826;28;20297;-38
2023/04/08 04:25:02;;;;;;;;;;;;;;;1.73;92.62;93527.59;5028785;28;19917;-38
2023/04/08 04:27:27;;;;;;;;;;;;;;;1.72;91.98;93522.63;5029066;28;19968;-38
2023/04/08 04:29:52;;;;;;;;;;;;;;;1.66;91.94;93530.03;5026825;28;20385;-38
2023/04/08 04:32:18;;;;;;;;;;;;;;;1.71;92.18;93526.59;5030996;28;20716;-38
2023/04/08 04:34:43;;;;;;;;;;;;;;;1.78;92.76;93532.31;5036402;28;19917;-38
2023/04/08 04:37:09;;;;;;;;;;;;;;;1.78;92.56;93534.28;5030227;28;19921;-38
2023/04/08 04:39:35;;;;;;;;;;;;;;;1.91;92.45;93531.84;5028279;28;20011;-38
2023/04/08 04:42:00;;;;;;;;;;;;;;;1.95;91.47;93530.38;5031911;28;20047;-38
2023/04/08 04:44:26;;;;;;;;;;;;;;;1.93;91.37;93532.09;5028895;28;19918;-38
2023/04/08 04:46:51;;;;;;;;;;;;;;;2.04;90.92;93541.03;5025350;28;19968;-38
2023/04/08 04:49:16;;;;;;;;;;;;;;;1.86;90.79;93538.78;5026038;28;19976;-38
2023/04/08 04:51:42;;;;;;;;;;;;;;;2.05;90.20;93539.06;5027293;28;20011;-38
2023/04/08 04:54:07;;;;;;;;;;;;;;;1.95;90.74;93541.25;5026121;28;19939;-38
2023/04/08 04:56:33;;;;;;;;;;;;;;;1.77;91.06;93540.97;5029550;28;19924;-38
2023/04/08 04:58:58;;;;;;;;;;;;;;;1.89;91.61;93545.22;5030918;28;19917;-37
2023/04/08 05:01:23;;;;;;;;;;;;;;;1.88;90.67;93549.19;5028264;28;19925;-38
2023/04/08 05:03:48;;;;;;;;;;;;;;;1.83;92.11;93555.34;5028607;28;19917;-38
2023/04/08 05:06:14;;;;;;;;;;;;;;;2.01;90.20;93554.91;5022297;28;20067;-38
2023/04/08 05:08:39;;;;;;;;;;;;;;;2.00;90.81;93551.44;5017573;28;19917;-38
2023/04/08 05:11:08;;;;;;;;;;;;;;;2.00;90.97;93556.88;5025573;28;19917;-38
2023/04/08 05:13:33;;;;;;;;;;;;;;;2.04;91.04;93551.19;5029473;28;20008;-38
2023/04/08 05:15:58;;;;;;;;;;;;;;;2.06;90.87;93554.16;5024004;28;20066;-38
2023/04/08 05:18:24;;;;;;;;;;;;;;;2.14;90.70;93552.47;5015705;28;20569;-38
2023/04/08 05:20:49;;;;;;;;;;;;;;;2.28;91.80;93548.78;5020190;28;20063;-38
2023/04/08 05:23:15;;;;;;;;;;;;;;;2.27;91.09;93548.03;5022764;28;20023;-38
2023/04/08 05:25:40;;;;;;;;;;;;;;;2.41;91.74;93556.47;5021976;28;20110;-38
2023/04/08 05:28:06;;;;;;;;;;;;;;;2.55;91.44;93555.50;5017215;28;19968;-38
2023/04/08 05:30:31;;;;;;;;;;;;;;;2.64;91.60;93558.00;5020985;28;19917;-38
2023/04/08 05:32:56;;;;;;;;;;;;;;;2.73;91.23;93558.47;5028464;28;20469;-38
2023/04/08 05:35:21;;;;;;;;;;;;;;;2.78;91.12;93560.47;5020489;28;19928;-38
2023/04/08 05:37:47;;;;;;;;;;;;;;;2.90;89.58;93547.59;5031042;28;20341;-38
2023/04/08 05:40:12;;;;;;;;;;;;;;;3.08;88.21;93556.00;5019646;28;19924;-38
2023/04/08 05:42:37;;;;;;;;;;;;;;;3.07;87.51;93559.22;5030443;28;19917;-38
2023/04/08 05:45:03;;;;;;;;;;;;;;;3.29;86.96;93559.16;5028324;28;19917;-38
2023/04/08 05:47:28;;;;;;;;;;;;;;;3.60;85.28;93555.38;5024387;28;19928;-38
2023/04/08 05:49:53;;;;;;;;;;;;;;;3.90;82.72;93548.06;5025907;28;19924;-38
2023/04/08 05:52:19;;;;;;;;;;;;;;;4.02;82.25;93554.22;5029946;28;19928;-38
2023/04/08 05:54:44;;;;;;;;;;;;;;;4.10;82.05;93553.19;5027985;28;19921;-38
2023/04/08 05:57:10;;;;;;;;;;;;;;;4.13;82.55;93548.72;5031387;28;19999;-38
2023/04/08 05:59:38;;;;;;;;;;;;;;;4.44;82.58;93546.28;5023268;28;19956;-38
2023/04/08 06:02:04;;;;;;;;;;;;;;;4.69;79.08;93546.38;5024712;28;19925;-38
2023/04/08 06:04:29;;;;;;;;;;;;;;;4.97;78.05;93542.19;5027165;28;19943;-38
2023/04/08 06:06:58;;;;;;;;;;;;;;;5.32;78.13;93531.19;5029735;28;19929;-38
2023/04/08 06:09:23;;;;;;;;;;;;;;;5.36;76.92;93530.88;5024341;28;19988;-38
2023/04/08 06:11:49;;;;;;;;;;;;;;;5.28;77.20;93519.03;5025650;28;19921;-38
2023/04/08 06:14:14;;;;;;;;;;;;;;;5.61;77.27;93524.13;5019596;28;19925;-38
2023/04/08 06:16:40;;;;;;;;;;;;;;;5.56;75.26;93519.47;5020121;28;19921;-38
2023/04/08 06:19:05;;;;;;;;;;;;;;;5.88;76.00;93517.66;5020205;28;20415;-39
2023/04/08 06:21:33;;;;;;;;;;;;;;;6.36;75.07;93513.28;5026090;28;19917;-38
2023/04/08 06:23:58;;;;;;;;;;;;;;;6.85;73.29;93520.78;5025554;28;19919;-38
2023/04/08 06:26:24;;;;;;;;;;;;;;;6.93;72.77;93520.88;5025293;28;19921;-38
2023/04/08 06:28:49;;;;;;;;;;;;;;;6.91;71.61;93522.69;5028952;28;19979;-38
2023/04/08 06:31:14;;;;;;;;;;;;;;;6.68;71.86;93528.53;5061964;28;19921;-38
2023/04/08 06:33:40;;;;;;;;;;;;;;;6.89;70.01;93531.44;5029238;28;19971;-38
2023/04/08 06:36:08;;;;;;;;;;;;;;;6.56;73.68;93523.72;5026281;28;19951;-38
2023/04/08 06:38:34;;;;;;;;;;;;;;;6.92;71.82;93522.16;5018328;28;19916;-38
2023/04/08 06:41:05;;;;;;;;;;;;;;;6.89;73.74;93515.72;5024861;28;20003;-38
2023/04/08 06:43:31;;;;;;;;;;;;;;;7.27;70.32;93521.09;5019878;28;19928;-38
2023/04/08 06:45:56;;;;;;;;;;;;;;;7.10;70.70;93534.38;5018354;28;20415;-38
2023/04/08 06:48:27;;;;;;;;;;;;;;;7.23;68.97;93535.16;5026968;28;20403;-37
2023/04/08 06:50:52;;;;;;;;;;;;;;;6.99;70.69;93534.53;5027656;28;20419;-38
2023/04/08 06:53:17;;;;;;;;;;;;;;;7.16;71.28;93538.50;5019591;28;19922;-39
2023/04/08 06:55:43;;;;;;;;;;;;;;;7.42;69.39;93527.56;5019347;28;19925;-39
2023/04/08 06:58:08;;;;;;;;;;;;;;;7.42;68.45;93526.81;5016157;28;20420;-39
2023/04/08 07:00:33;;;;;;;;;;;;;;;7.46;69.28;93528.00;5020704;28;19918;-40
2023/04/08 07:03:01;;;;;;;;;;;;;;;7.40;67.86;93527.34;5017377;28;20593;-39
2023/04/08 07:05:27;;;;;;;;;;;;;;;7.06;68.83;93531.91;5033711;28;20379;-39
2023/04/08 07:07:52;;;;;;;;;;;;;;;6.80;70.23;93540.06;5022003;28;20019;-39
2023/04/08 07:10:17;;;;;;;;;;;;;;;7.14;68.18;93538.28;5022778;28;19928;-39
2023/04/08 07:12:43;;;;;;;;;;;;;;;7.30;69.45;93544.75;5022487;28;20399;-39
2023/04/08 07:15:08;;;;;;;;;;;;;;;7.50;68.56;93550.38;5030531;28;20476;-38
2023/04/08 07:17:33;;;;;;;;;;;;;;;7.55;68.03;93549.56;5021878;28;19964;-38
2023/04/08 07:19:59;;;;;;;;;;;;;;;7.66;66.70;93551.38;5024457;28;19930;-38
2023/04/08 07:22:24;;;;;;;;;;;;;;;7.94;66.25;93553.59;5023512;28;19932;-37
2023/04/08 07:24:50;;;;;;;;;;;;;;;7.81;66.46;93551.59;5027432;28;20424;-38
2023/04/08 07:27:16;;;;;;;;;;;;;;;7.68;65.64;93548.81;5025312;28;20514;-38
2023/04/08 07:29:41;;;;;;;;;;;;;;;7.78;65.97;93558.13;5033046;28;19931;-38
2023/04/08 07:32:06;;;;;;;;;;;;;;;7.65;66.53;93552.63;5030463;28;19999;-38
2023/04/08 07:34:33;;;;;;;;;;;;;;;7.71;66.70;93553.25;5020538;28;19928;-38
2023/04/08 07:36:58;;;;;;;;;;;;;;;7.68;67.70;93567.31;5027622;28;19991;-38
2023/04/08 07:39:24;;;;;;;;;;;;;;;7.97;65.58;93560.78;5034066;28;19968;-38
2023/04/08 07:41:49;;;;;;;;;;;;;;;7.61;65.85;93563.19;5021299;28;20634;-39
2023/04/08 07:44:16;;;;;;;;;;;;;;;7.74;65.87;93565.19;5020365;28;20679;-40
2023/04/08 07:46:41;;;;;;;;;;;;;;;8.07;63.33;93568.09;5016611;28;20493;-38
2023/04/08 07:49:06;;;;;;;;;;;;;;;7.78;64.26;93571.88;5020866;28;19920;-38
2023/04/08 07:51:32;;;;;;;;;;;;;;;7.94;63.96;93575.59;5016126;28;19926;-38
2023/04/08 07:53:58;;;;;;;;;;;;;;;7.96;63.75;93573.78;5015342;28;20086;-38
2023/04/08 07:56:23;;;;;;;;;;;;;;;8.10;62.49;93571.78;5013938;28;19952;-38
2023/04/08 07:58:49;;;;;;;;;;;;;;;8.38;62.83;93578.22;5015864;28;20024;-38
2023/04/08 08:01:15;;;;;;;;;;;;;;;8.09;62.54;93568.28;5013722;28;19925;-38
2023/04/08 08:03:40;;;;;;;;;;;;;;;8.43;62.36;93576.63;5019359;28;19925;-38
2023/04/08 08:06:06;;;;;;;;;;;;;;;8.50;62.65;93591.75;5017405;28;20384;-38
2023/04/08 08:08:32;;;;;;;;;;;;;;;8.82;62.77;93584.06;5024399;28;19921;-38
2023/04/08 08:10:57;;;;;;;;;;;;;;;8.83;62.53;93586.28;5017607;28;19929;-38
2023/04/08 08:13:24;;;;;;;;;;;;;;;8.98;62.33;93578.19;5018062;28;19972;-38
2023/04/08 08:15:52;;;;;;;;;;;;;;;9.13;61.64;93586.59;5017871;28;19925;-38
2023/04/08 08:18:18;;;;;;;;;;;;;;;9.13;60.30;93592.13;5020897;28;19921;-38
2023/04/08 08:20:43;;;;;;;;;;;;;;;9.07;61.13;93591.47;5023881;28;19928;-38
2023/04/08 08:23:08;;;;;;;;;;;;;;;9.11;60.44;93589.16;5018239;28;20906;-38
2023/04/08 08:25:34;;;;;;;;;;;;;;;8.81;63.59;93593.59;5020821;28;19929;-38
2023/04/08 08:27:59;;;;;;;;;;;;;;;9.00;61.56;93586.66;5019401;28;19926;-38
2023/04/08 08:30:25;;;;;;;;;;;;;;;9.08;64.12;93583.97;5019401;28;19921;-38
2023/04/08 08:32:50;;;;;;;;;;;;;;;9.45;60.65;93588.34;5023271;28;20394;-38
2023/04/08 08:35:16;;;;;;;;;;;;;;;9.79;60.74;93583.47;5021584;28;19923;-38
2023/04/08 08:37:41;;;;;;;;;;;;;;;9.95;60.85;93587.84;5014823;28;20621;-38
2023/04/08 08:40:07;;;;;;;;;;;;;;;10.30;58.61;93587.16;5024573;28;20349;-38
2023/04/08 08:42:34;;;;;;;;;;;;;;;10.29;59.83;93585.69;5016789;28;20003;-39
2023/04/08 08:45:02;;;;;;;;;;;;;;;10.79;56.93;93594.56;5024699;28;19917;-38
2023/04/08 08:47:28;;;;;;;;;;;;;;;10.20;58.72;93586.16;5022283;28;19957;-39
2023/04/08 08:49:53;;;;;;;;;;;;;;;9.96;59.03;93597.59;5030847;28;20363;-39
2023/04/08 08:52:18;;;;;;;;;;;;;;;10.06;58.29;93590.31;5017541;28;19917;-39
2023/04/08 08:54:45;;;;;;;;;;;;;;;9.56;60.32;93591.59;5024921;28;19971;-39
2023/04/08 08:57:17;;;;;;;;;;;;;;;9.71;59.71;93597.22;5033277;28;19920;-38
2023/04/08 08:59:46;;;;;;;;;;;;;;;9.81;61.44;93597.50;5030338;28;19921;-38
2023/04/08 09:02:25;;;;;;;;;;;;;;;9.62;60.27;93592.19;5027998;28;19924;-38
2023/04/08 09:04:55;;;;;;;;;;;;;;;9.62;60.42;93602.47;5026854;28;19920;-38
2023/04/08 09:07:23;;;;;;;;;;;;;;;9.98;60.48;93599.81;5024860;28;19975;-39
2023/04/08 09:09:49;;;;;;;;;;;;;;;9.98;59.41;93597.78;5027086;28;19928;-38
2023/04/08 09:12:14;;;;;;;;;;;;;;;9.89;59.95;93599.03;5028887;28;19924;-39
2023/04/08 09:14:40;;;;;;;;;;;;;;;9.85;59.10;93603.41;5027038;28;19972;-38
2023/04/08 09:17:05;;;;;;;;;;;;;;;9.75;60.44;93594.09;5018785;28;19917;-39
2023/04/08 09:19:30;;;;;;;;;;;;;;;9.72;59.63;93595.22;5022204;28;19953;-39
2023/04/08 09:22:08;;;;;;;;;;;;;;;9.45;60.87;93596.63;5021471;28;19916;-39
2023/04/08 09:24:34;;;;;;;;;;;;;;;9.65;59.39;93599.38;5026670;28;19917;-39
2023/04/08 09:27:00;;;;;;;;;;;;;;;10.19;59.87;93597.75;5031795;28;19923;-39
2023/04/08 09:29:26;;;;;;;;;;;;;;;10.62;57.88;93598.56;5030398;28;20008;-39
2023/04/08 09:31:55;;;;;;;;;;;;;;;11.10;55.51;93594.13;5029002;28;20427;-39
2023/04/08 09:34:22;;;;;;;;;;;;;;;11.44;55.20;93600.09;5028453;28;20447;-39
2023/04/08 09:36:48;;;;;;;;;;;;;;;11.90;55.29;93595.34;5059015;28;20459;-39
2023/04/08 09:39:13;;;;;;;;;;;;;;;11.81;53.32;93595.91;5051012;28;19968;-39
2023/04/08 09:41:39;;;;;;;;;;;;;;;11.62;53.73;93594.75;5029905;28;19917;-39
2023/04/08 09:44:05;;;;;;;;;;;;;;;12.01;56.00;93594.25;5048056;28;19983;-39
2023/04/08 09:46:30;;;;;;;;;;;;;;;13.16;52.17;93590.59;5024470;28;20005;-39
2023/04/08 09:49:08;;;;;;;;;;;;;;;13.43;50.29;93591.56;5018449;28;19960;-39
2023/04/08 09:51:40;;;;;;;;;;;;;;;14.36;47.30;93581.41;5029439;28;19930;-39
2023/04/08 09:54:06;;;;;;;;;;;;;;;14.65;45.83;93580.94;5038200;28;19983;-38
2023/04/08 09:56:42;;;;;;;;;;;;;;;14.33;47.02;93581.81;5051609;28;19984;-39
2023/04/08 09:59:11;;;;;;;;;;;;;;;14.18;46.67;93591.00;5035550;28;19975;-39
2023/04/08 10:01:38;;;;;;;;;;;;;;;14.69;44.11;93587.56;5059611;28;20056;-39
2023/04/08 10:04:05;;;;;;;;;;;;;;;16.36;43.75;93575.56;5024016;28;19939;-39
2023/04/08 10:06:30;;;;;;;;;;;;;;;17.22;40.65;93572.09;5054755;28;19957;-37
2023/04/08 10:08:56;;;;;;;;;;;;;;;17.24;39.20;93577.81;5060093;28;20622;-39
2023/04/08 10:11:21;;;;;;;;;;;;;;;17.37;38.03;93578.09;5025860;28;20449;-39
2023/04/08 10:13:47;;;;;;;;;;;;;;;19.02;34.98;93573.94;5020286;28;20020;-39
2023/04/08 10:16:16;;;;;;;;;;;;;;;18.65;35.00;93579.94;5025458;28;19942;-39
2023/04/08 10:18:41;;;;;;;;;;;;;;;18.56;32.92;93571.63;5024707;28;19936;-39
2023/04/08 10:21:27;;;;;;;;;;;;;;;19.20;34.16;93567.47;5021164;28;20093;-39
2023/04/08 10:23:57;;;;;;;;;;;;;;;19.86;31.19;93578.63;5014971;28;20032;-39
2023/04/08 10:26:29;;;;;;;;;;;;;;;18.66;33.40;93566.72;5021383;28;20015;-39
2023/04/08 10:28:54;;;;;;;;;;;;;;;18.77;32.25;93561.19;5020850;28;19931;-39
2023/04/08 10:31:21;;;;;;;;;;;;;;;17.51;33.96;93574.84;5026435;28;19990;-39
2023/04/08 10:33:46;;;;;;;;;;;;;;;16.67;35.85;93568.13;5019885;28;19935;-39
2023/04/08 10:36:13;;;;;;;;;;;;;;;15.17;39.23;93571.22;5052542;28;20492;-39
2023/04/08 10:38:41;;;;;;;;;;;;;;;15.55;39.67;93559.63;5020180;28;19917;-39
2023/04/08 10:41:06;;;;;;;;;;;;;;;17.59;36.10;93547.50;5023123;28;19921;-39
2023/04/08 10:43:35;;;;;;;;;;;;;;;18.66;33.91;93552.72;5023913;28;20448;-38
2023/04/08 10:46:00;;;;;;;;;;;;;;;19.75;30.73;93548.50;5027531;28;20598;-39
2023/04/08 10:48:27;;;;;;;;;;;;;;;20.95;32.30;93544.50;5027066;28;19917;-38
2023/04/08 10:51:00;;;;;;;;;;;;;;;19.70;30.45;93552.38;5017269;28;20006;-38
2023/04/08 10:53:35;;;;;;;;;;;;;;;17.82;33.07;93556.09;5019501;28;19931;-38
2023/04/08 10:56:03;;;;;;;;;;;;;;;16.58;35.07;93552.16;5032763;28;19984;-38
2023/04/08 10:58:29;;;;;;;;;;;;;;;16.48;35.48;93547.88;5020786;28;19917;-38
2023/04/08 11:00:54;;;;;;;;;;;;;;;17.36;34.98;93543.13;5021785;28;19925;-38
2023/04/08 11:03:19;;;;;;;;;;;;;;;18.04;31.58;93547.16;5016004;28;19948;-38
2023/04/08 11:05:45;;;;;;;;;;;;;;;18.70;32.39;93536.19;5018267;28;19913;-39
2023/04/08 11:08:11;;;;;;;;;;;;;;;16.91;32.90;93532.94;5027364;28;20058;-39
2023/04/08 11:10:43;;;;;;;;;;;;;;;15.56;35.95;93533.25;5031909;28;20098;-38
2023/04/08 11:13:18;;;;;;;;;;;;;;;14.81;38.81;93526.66;5040437;28;20340;-39
2023/04/08 11:15:43;;;;;;;;;;;;;;;15.02;39.02;93529.72;5019515;28;19913;-38
2023/04/08 11:18:13;;;;;;;;;;;;;;;16.19;36.33;93533.16;5029666;28;20083;-38
2023/04/08 11:20:52;;;;;;;;;;;;;;;17.86;33.52;93526.41;5017608;28;19941;-39
2023/04/08 11:24:04;;;;;;;;;;;;;;;17.39;33.64;93521.66;5024292;28;19924;-39
2023/04/08 11:26:50;;;;;;;;;;;;;;;16.88;33.91;93517.38;5020274;28;20036;-39
2023/04/08 11:29:31;;;;;;;;;;;;;;;16.26;34.44;93521.88;4978000;28;19961;-38
2023/04/08 11:32:17;;;;;;;;;;;;;;;15.54;36.76;93516.41;5031646;28;19921;-38
2023/04/08 11:34:46;;;;;;;;;;;;;;;15.76;34.49;93504.19;5023792;28;19931;-38
2023/04/08 11:37:38;;;;;;;;;;;;;;;16.11;36.25;93511.00;5025805;28;19913;-39
2023/04/08 11:40:16;;;;;;;;;;;;;;;15.70;34.08;93498.16;5028490;28;20316;-39
2023/04/08 11:57:36;;;;;;;;;;;;;;;15.51;36.38;93500.84;4917851;28;19930;-38
2023/04/08 12:00:03;;;;;;;;;;;;;;;14.93;36.91;93494.97;4943153;28;19919;-38
2023/04/08 12:02:28;;;;;;;;;;;;;;;14.88;38.66;93492.44;4950424;28;20425;-38
2023/04/08 12:04:53;;;;;;;;;;;;;;;14.65;38.62;93486.44;5018060;28;19917;-38
2023/04/08 12:07:19;;;;;;;;;;;;;;;14.20;38.32;93487.69;5019424;28;20008;-38
2023/04/08 12:09:44;;;;;;;;;;;;;;;14.61;40.60;93480.56;5015658;28;19917;-38
2023/04/08 12:12:09;;;;;;;;;;;;;;;14.21;37.66;93476.00;5025450;28;19969;-38
2023/04/08 12:14:35;;;;;;;;;;;;;;;13.92;37.47;93474.28;5020623;28;19924;-38
2023/04/08 12:17:00;;;;;;;;;;;;;;;13.35;39.39;93471.63;5022385;28;19925;-38
2023/04/08 12:19:25;;;;;;;;;;;;;;;13.73;37.74;93468.56;5021493;28;20004;-38
2023/04/08 12:21:51;;;;;;;;;;;;;;;13.75;37.56;93457.63;5020947;28;19928;-38
2023/04/08 12:24:16;;;;;;;;;;;;;;;14.28;36.29;93460.56;5018008;28;19936;-38
2023/04/08 12:26:41;;;;;;;;;;;;;;;14.19;37.71;93455.66;5019328;28;20380;-38
2023/04/08 12:29:10;;;;;;;;;;;;;;;14.16;36.80;93449.22;5015927;28;20325;-38
2023/04/08 12:31:35;;;;;;;;;;;;;;;14.10;36.24;93457.06;5021271;28;19920;-38
2023/04/08 12:34:01;;;;;;;;;;;;;;;14.10;35.66;93445.94;5025701;28;19921;-39
2023/04/08 12:36:26;;;;;;;;;;;;;;;13.55;36.64;93449.09;5022282;28;19913;-39
2023/04/08 12:38:52;;;;;;;;;;;;;;;13.25;38.30;93449.34;5023082;28;19931;-39
2023/04/08 12:41:17;;;;;;;;;;;;;;;13.58;36.93;93442.41;5021386;28;20007;-39
2023/04/08 12:43:42;;;;;;;;;;;;;;;13.46;36.85;93438.63;5020920;28;19956;-39
2023/04/08 12:46:07;;;;;;;;;;;;;;;13.70;38.42;93442.66;5019252;28;19921;-39
2023/04/08 12:48:33;;;;;;;;;;;;;;;13.84;35.19;93435.50;5022460;28;20019;-38
2023/04/08 12:50:58;;;;;;;;;;;;;;;13.55;35.81;93448.34;5025304;28;19921;-39
2023/04/08 12:53:23;;;;;;;;;;;;;;;13.38;36.87;93440.00;5027311;28;20020;-39
2023/04/08 12:55:50;;;;;;;;;;;;;;;13.28;39.94;93442.66;5022369;28;19921;-38
2023/04/08 12:58:16;;;;;;;;;;;;;;;13.28;39.54;93444.69;5022508;28;19921;-39
2023/04/08 13:00:45;;;;;;;;;;;;;;;13.11;40.18;93448.16;5023219;28;19975;-38
2023/04/08 13:03:10;;;;;;;;;;;;;;;13.19;40.19;93443.28;5023084;28;19913;-38
2023/04/08 13:05:36;;;;;;;;;;;;;;;12.97;40.81;93441.41;5031683;28;20392;-39
2023/04/08 13:08:01;;;;;;;;;;;;;;;12.55;43.27;93438.50;5030648;28;19918;-38